createdAt,value
2023-03-30T00:01:04.239Z,10.50
2023-03-30T00:03:31.452Z,9.83
2023-03-30T00:06:05.174Z,7.30
2023-03-30T00:08:33.415Z,15.97
2023-03-30T00:11:02.332Z,7.10
2023-03-30T00:13:30.024Z,7.87
2023-03-30T00:15:56.931Z,9.63
2023-03-30T00:18:23.979Z,6.63
2023-03-30T00:20:51.944Z,9.20
2023-03-30T00:23:22.436Z,7.87
2023-03-30T00:25:49.307Z,11.43
2023-03-30T00:28:16.199Z,9.00
2023-03-30T00:30:43.446Z,8.73
2023-03-30T00:33:10.408Z,11.80
2023-03-30T00:35:37.268Z,7.63
2023-03-30T00:38:04.072Z,8.87
2023-03-30T00:40:32.730Z,6.33
2023-03-30T00:43:11.349Z,8.83
2023-03-30T00:45:38.296Z,8.10
2023-03-30T00:48:29.640Z,6.90
2023-03-30T00:51:07.510Z,9.93
2023-03-30T00:53:38.873Z,5.30
2023-03-30T00:56:08.655Z,8.93
2023-03-30T00:58:37.106Z,7.33
2023-03-30T01:01:07.774Z,8.37
2023-03-30T01:03:39.059Z,6.30
2023-03-30T01:06:10.563Z,7.47
2023-03-30T01:08:38.520Z,7.73
2023-03-30T01:11:07.095Z,7.77
2023-03-30T01:13:42.402Z,7.73
2023-03-30T01:16:19.095Z,8.17
2023-03-30T01:18:57.825Z,8.53
2023-03-30T01:21:55.599Z,5.20
2023-03-30T01:24:35.759Z,7.70
2023-03-30T01:27:24.767Z,5.87
2023-03-30T01:30:15.932Z,8.17
2023-03-30T01:32:58.758Z,5.57
2023-03-30T01:35:33.995Z,7.10
2023-03-30T01:38:19.981Z,7.83
2023-03-30T01:40:57.066Z,7.00
2023-03-30T01:43:35.455Z,6.20
2023-03-30T01:46:12.589Z,5.37
2023-03-30T01:48:51.829Z,7.30
2023-03-30T01:51:23.443Z,7.30
2023-03-30T01:54:00.001Z,7.40
2023-03-30T01:56:41.775Z,8.83
2023-03-30T01:59:18.309Z,6.50
2023-03-30T02:01:50.290Z,8.17
2023-03-30T02:04:22.461Z,6.40
2023-03-30T02:07:04.090Z,7.33
2023-03-30T02:09:33.668Z,5.63
2023-03-30T02:12:02.208Z,5.43
2023-03-30T02:14:32.777Z,7.40
2023-03-30T02:17:14.473Z,9.20
2023-03-30T02:19:42.216Z,6.53
2023-03-30T02:22:09.475Z,8.63
2023-03-30T02:24:36.694Z,5.20
2023-03-30T02:27:04.376Z,7.23
2023-03-30T02:29:32.937Z,5.40
2023-03-30T02:32:00.712Z,6.80
2023-03-30T02:34:49.377Z,7.40
2023-03-30T02:37:42.561Z,7.43
2023-03-30T02:40:17.132Z,9.13
2023-03-30T02:42:43.794Z,4.93
2023-03-30T02:45:29.421Z,5.10
2023-03-30T02:48:28.888Z,5.93
2023-03-30T02:51:21.792Z,6.77
2023-03-30T02:53:59.063Z,5.40
2023-03-30T02:56:58.238Z,7.37
2023-03-30T02:59:36.442Z,5.93
2023-03-30T03:02:23.114Z,5.57
2023-03-30T03:04:52.898Z,6.60
2023-03-30T03:07:21.591Z,6.43
2023-03-30T03:09:49.408Z,5.77
2023-03-30T03:12:16.333Z,6.37
2023-03-30T03:14:43.227Z,11.27
2023-03-30T03:17:10.105Z,13.83
2023-03-30T03:19:36.980Z,8.57
2023-03-30T03:22:03.772Z,6.07
2023-03-30T03:24:33.903Z,6.83
2023-03-30T03:27:01.002Z,6.47
2023-03-30T03:29:27.808Z,4.37
2023-03-30T03:31:54.696Z,8.40
2023-03-30T03:34:21.380Z,5.87
2023-03-30T03:36:52.630Z,6.63
2023-03-30T03:39:19.746Z,5.63
2023-03-30T03:41:46.425Z,3.93
2023-03-30T03:44:13.203Z,5.50
2023-03-30T03:46:40.052Z,6.53
2023-03-30T03:49:07.035Z,4.23
2023-03-30T03:51:34.088Z,5.87
2023-03-30T03:54:01.107Z,5.60
2023-03-30T03:56:27.995Z,7.97
2023-03-30T03:58:54.770Z,5.27
2023-03-30T04:01:22.728Z,6.33
2023-03-30T04:03:49.490Z,6.07
2023-03-30T04:06:16.446Z,7.17
2023-03-30T04:08:44.207Z,6.90
2023-03-30T04:11:12.140Z,5.57
2023-03-30T04:13:41.095Z,5.17
2023-03-30T04:16:08.519Z,4.33
2023-03-30T04:18:36.325Z,7.63
2023-03-30T04:21:05.909Z,5.00
2023-03-30T04:23:34.151Z,6.97
2023-03-30T04:26:01.813Z,6.57
2023-03-30T04:28:33.707Z,4.97
2023-03-30T04:31:02.377Z,8.67
2023-03-30T04:33:30.097Z,4.73
2023-03-30T04:35:57.083Z,6.10
2023-03-30T04:38:23.802Z,4.13
2023-03-30T04:40:51.905Z,6.70
2023-03-30T04:43:20.136Z,9.37
2023-03-30T04:45:52.120Z,6.07
2023-03-30T04:48:20.983Z,5.47
2023-03-30T04:50:49.408Z,5.43
2023-03-30T04:53:17.525Z,7.90
2023-03-30T04:55:48.819Z,2.77
2023-03-30T04:58:16.048Z,5.57
2023-03-30T05:00:43.017Z,6.03
2023-03-30T05:03:09.841Z,6.53
2023-03-30T05:05:36.701Z,9.20
2023-03-30T05:08:03.530Z,4.73
2023-03-30T05:10:30.534Z,4.53
2023-03-30T05:12:57.368Z,4.77
2023-03-30T05:15:25.396Z,6.10
2023-03-30T05:17:52.269Z,6.60
2023-03-30T05:20:18.956Z,5.70
2023-03-30T05:22:47.048Z,6.93
2023-03-30T05:25:13.988Z,5.40
2023-03-30T05:27:40.841Z,6.90
2023-03-30T05:30:08.353Z,4.97
2023-03-30T05:32:35.310Z,8.83
2023-03-30T05:35:02.368Z,7.07
2023-03-30T05:37:29.157Z,7.40
2023-03-30T05:39:56.150Z,5.80
2023-03-30T05:42:23.002Z,4.80
2023-03-30T05:44:49.845Z,8.37
2023-03-30T05:47:16.717Z,9.80
2023-03-30T05:49:43.967Z,10.13
2023-03-30T05:52:11.651Z,7.57
2023-03-30T05:54:38.487Z,6.23
2023-03-30T05:57:05.420Z,6.60
2023-03-30T05:59:33.207Z,5.57
2023-03-30T06:02:00.757Z,11.30
2023-03-30T06:04:27.613Z,8.73
2023-03-30T06:06:54.430Z,8.73
2023-03-30T06:09:21.229Z,9.97
2023-03-30T06:11:47.929Z,5.20
2023-03-30T06:14:14.735Z,9.20
2023-03-30T06:16:41.551Z,7.50
2023-03-30T06:19:08.462Z,8.80
2023-03-30T06:21:35.367Z,10.63
2023-03-30T06:24:02.051Z,11.03
2023-03-30T06:26:29.507Z,10.87
2023-03-30T06:28:56.240Z,8.90
2023-03-30T06:31:22.996Z,12.93
2023-03-30T06:33:51.175Z,11.77
2023-03-30T06:36:18.123Z,9.97
2023-03-30T06:38:44.814Z,10.60
2023-03-30T06:41:12.709Z,14.70
2023-03-30T06:43:40.096Z,11.27
2023-03-30T06:46:08.201Z,11.63
2023-03-30T06:48:35.247Z,10.10
2023-03-30T06:51:02.501Z,13.10
2023-03-30T06:53:30.136Z,8.90
2023-03-30T06:55:58.554Z,13.57
2023-03-30T06:58:27.531Z,11.93
2023-03-30T07:00:55.232Z,12.30
2023-03-30T07:03:22.273Z,11.47
2023-03-30T07:05:50.381Z,11.07
2023-03-30T07:08:18.677Z,11.63
2023-03-30T07:10:47.823Z,16.17
2023-03-30T07:13:16.666Z,10.27
2023-03-30T07:15:46.106Z,7.63
2023-03-30T07:18:13.723Z,12.53
2023-03-30T07:20:40.627Z,13.03
2023-03-30T07:23:07.808Z,9.37
2023-03-30T07:25:34.498Z,11.60
2023-03-30T07:28:02.194Z,10.70
2023-03-30T07:30:28.906Z,15.23
2023-03-30T07:32:58.364Z,14.10
2023-03-30T07:35:26.267Z,14.93
2023-03-30T07:38:02.017Z,9.30
2023-03-30T07:40:29.897Z,14.98
2023-03-30T07:42:56.723Z,15.40
2023-03-30T07:45:23.404Z,13.45
2023-03-30T07:47:50.206Z,13.05
2023-03-30T07:50:17.029Z,13.95
2023-03-30T07:52:44.037Z,14.63
2023-03-30T07:55:12.216Z,14.45
2023-03-30T07:57:39.029Z,14.43
2023-03-30T08:00:08.172Z,12.73
2023-03-30T08:02:35.571Z,14.60
2023-03-30T08:05:02.674Z,11.70
2023-03-30T08:07:30.129Z,15.73
2023-03-30T08:09:57.096Z,13.52
2023-03-30T08:12:23.834Z,11.70
2023-03-30T08:14:50.563Z,7.82
2023-03-30T08:17:19.258Z,18.67
2023-03-30T08:19:46.106Z,12.48
2023-03-30T08:22:12.906Z,13.23
2023-03-30T08:24:39.645Z,14.18
2023-03-30T08:27:07.144Z,11.75
2023-03-30T08:29:33.952Z,11.88
2023-03-30T08:32:01.101Z,14.93
2023-03-30T08:34:29.079Z,13.02
2023-03-30T08:36:55.865Z,19.05
2023-03-30T08:39:22.684Z,15.38
2023-03-30T08:42:24.741Z,14.00
2023-03-30T08:44:57.457Z,14.45
2023-03-30T08:47:34.924Z,18.60
2023-03-30T08:50:15.761Z,15.13
2023-03-30T08:52:43.133Z,17.50
2023-03-30T08:55:20.468Z,9.55
2023-03-30T08:57:59.211Z,17.30
2023-03-30T09:00:40.381Z,21.30
2023-03-30T09:03:15.823Z,11.97
2023-03-30T09:05:55.271Z,15.73
2023-03-30T09:08:28.981Z,15.07
2023-03-30T09:11:01.550Z,16.20
2023-03-30T09:13:36.363Z,19.20
2023-03-30T09:16:28.769Z,16.27
2023-03-30T09:18:57.892Z,8.90
2023-03-30T09:21:28.775Z,14.32
2023-03-30T09:23:58.933Z,18.88
2023-03-30T09:26:58.661Z,16.55
2023-03-30T09:29:30.076Z,21.48
2023-03-30T09:32:17.314Z,16.52
2023-03-30T09:34:50.236Z,21.98
2023-03-30T09:37:18.976Z,14.65
2023-03-30T09:39:46.228Z,18.63
2023-03-30T09:42:16.351Z,12.60
2023-03-30T09:45:02.007Z,18.08
2023-03-30T09:47:38.002Z,12.30
2023-03-30T09:50:10.239Z,12.30
2023-03-30T09:52:40.578Z,11.93
2023-03-30T09:55:30.419Z,11.20
2023-03-30T09:58:14.772Z,12.25
2023-03-30T10:00:41.539Z,12.55
2023-03-30T10:03:18.422Z,12.73
2023-03-30T10:05:45.289Z,14.90
2023-03-30T10:08:23.009Z,13.43
2023-03-30T10:10:56.763Z,14.35
2023-03-30T10:13:44.473Z,13.95
2023-03-30T10:16:30.105Z,17.00
2023-03-30T10:19:01.240Z,17.27
2023-03-30T10:21:47.159Z,12.68
2023-03-30T10:24:24.386Z,18.65
2023-03-30T10:26:57.655Z,20.75
2023-03-30T10:29:27.235Z,12.00
2023-03-30T10:32:16.209Z,17.08
2023-03-30T10:34:45.541Z,18.75
2023-03-30T10:37:33.140Z,19.08
2023-03-30T10:40:05.564Z,24.83
2023-03-30T10:42:33.374Z,24.48
2023-03-30T10:45:02.578Z,16.63
2023-03-30T10:48:02.355Z,17.58
2023-03-30T10:50:35.978Z,24.05
2023-03-30T10:53:27.238Z,17.15
2023-03-30T10:56:05.917Z,18.80
2023-03-30T10:58:57.925Z,23.15
2023-03-30T11:01:33.638Z,14.98
2023-03-30T11:04:20.360Z,15.75
2023-03-30T11:06:54.581Z,19.42
2023-03-30T11:09:29.101Z,14.70
2023-03-30T11:12:02.134Z,17.20
2023-03-30T11:14:44.284Z,18.27
2023-03-30T11:17:23.388Z,17.88
2023-03-30T11:19:55.483Z,20.00
2023-03-30T11:22:46.292Z,18.13
2023-03-30T11:25:36.688Z,22.88
2023-03-30T11:28:16.056Z,22.42
2023-03-30T11:30:43.971Z,22.60
2023-03-30T11:33:26.786Z,15.98
2023-03-30T11:35:55.638Z,25.45
2023-03-30T11:38:30.495Z,18.02
2023-03-30T11:41:15.081Z,23.05
2023-03-30T11:43:42.621Z,19.17
2023-03-30T11:46:27.888Z,22.75
2023-03-30T11:49:08.067Z,24.80
2023-03-30T11:52:07.453Z,15.68
2023-03-30T11:55:13.712Z,20.25
2023-03-30T11:58:14.721Z,19.15
2023-03-30T12:00:55.286Z,24.83
2023-03-30T12:03:45.143Z,23.17
2023-03-30T12:06:29.615Z,20.48
2023-03-30T12:09:05.226Z,19.83
2023-03-30T12:11:37.703Z,15.40
2023-03-30T12:14:30.858Z,15.55
2023-03-30T12:17:04.199Z,22.52
2023-03-30T12:19:56.603Z,17.45
2023-03-30T12:23:02.880Z,19.75
2023-03-30T12:26:10.084Z,18.17
2023-03-30T12:29:56.491Z,18.40
2023-03-30T12:32:01.357Z,21.73
2023-03-30T12:34:31.845Z,15.57
2023-03-30T12:37:05.569Z,16.95
2023-03-30T12:39:37.042Z,16.83
2023-03-30T12:42:07.357Z,20.73
2023-03-30T12:44:57.788Z,17.90
2023-03-30T12:47:36.855Z,13.43
2023-03-30T12:50:09.703Z,16.63
2023-03-30T12:53:03.162Z,16.75
2023-03-30T12:55:40.453Z,17.70
2023-03-30T12:58:13.184Z,13.07
2023-03-30T13:01:13.085Z,18.23
2023-03-30T13:03:49.720Z,15.93
2023-03-30T13:06:33.799Z,13.88
2023-03-30T13:09:27.274Z,17.73
2023-03-30T13:11:53.950Z,18.98
2023-03-30T13:14:39.357Z,15.25
2023-03-30T13:17:12.127Z,18.38
2023-03-30T13:19:38.857Z,19.98
2023-03-30T13:22:11.814Z,18.80
2023-03-30T13:25:02.655Z,18.38
2023-03-30T13:27:31.406Z,14.70
2023-03-30T13:30:08.780Z,19.92
2023-03-30T13:32:43.766Z,19.20
2023-03-30T13:35:34.850Z,22.70
2023-03-30T13:38:40.352Z,16.60
2023-03-30T13:41:22.251Z,15.25
2023-03-30T13:44:18.998Z,14.10
2023-03-30T13:47:12.134Z,19.58
2023-03-30T13:49:50.276Z,15.93
2023-03-30T13:52:20.652Z,11.10
2023-03-30T13:54:47.643Z,13.80
2023-03-30T13:57:26.716Z,17.55
2023-03-30T14:00:08.688Z,17.02
2023-03-30T14:02:39.995Z,20.52
2023-03-30T14:05:20.485Z,13.15
2023-03-30T14:07:47.870Z,18.30
2023-03-30T14:10:18.583Z,19.70
2023-03-30T14:12:48.754Z,18.88
2023-03-30T14:15:33.922Z,19.45
2023-03-30T14:18:02.564Z,17.08
2023-03-30T14:21:00.775Z,21.15
2023-03-30T14:23:36.391Z,18.50
2023-03-30T14:26:13.062Z,21.38
2023-03-30T14:28:42.350Z,18.90
2023-03-30T14:31:23.074Z,19.58
2023-03-30T14:33:49.984Z,27.63
2023-03-30T14:36:19.281Z,21.00
2023-03-30T14:38:48.394Z,21.25
2023-03-30T14:41:23.237Z,19.02
2023-03-30T14:44:02.413Z,13.73
2023-03-30T14:46:38.701Z,17.33
2023-03-30T14:49:06.106Z,19.50
2023-03-30T14:51:43.344Z,15.65
2023-03-30T14:54:19.471Z,21.27
2023-03-30T14:56:53.225Z,19.63
2023-03-30T14:59:20.941Z,18.52
2023-03-30T15:01:48.626Z,16.42
2023-03-30T15:04:17.409Z,17.38
2023-03-30T15:06:48.321Z,18.63
2023-03-30T15:09:17.981Z,18.73
2023-03-30T15:11:48.459Z,15.77
2023-03-30T15:14:19.093Z,18.10
2023-03-30T15:16:48.086Z,14.20
2023-03-30T15:19:36.241Z,14.75
2023-03-30T15:22:11.182Z,10.82
2023-03-30T15:24:39.597Z,15.27
2023-03-30T15:27:11.769Z,12.70
2023-03-30T15:29:41.308Z,14.32
2023-03-30T15:32:18.423Z,16.17
2023-03-30T15:35:07.103Z,20.85
2023-03-30T15:37:35.664Z,13.93
2023-03-30T15:40:05.193Z,18.52
2023-03-30T15:42:33.472Z,20.25
2023-03-30T15:45:09.138Z,16.83
2023-03-30T15:47:36.760Z,13.43
2023-03-30T15:50:04.050Z,15.52
2023-03-30T15:52:37.650Z,18.70
2023-03-30T15:55:11.545Z,14.43
2023-03-30T15:57:44.385Z,15.93
2023-03-30T16:00:19.230Z,16.67
2023-03-30T16:02:58.276Z,11.50
2023-03-30T16:05:30.893Z,16.08
2023-03-30T16:07:58.176Z,16.15
2023-03-30T16:10:28.150Z,10.68
2023-03-30T16:12:56.475Z,17.60
2023-03-30T16:15:26.077Z,15.98
2023-03-30T16:17:52.910Z,13.45
2023-03-30T16:20:29.261Z,14.57
2023-03-30T16:22:56.320Z,16.05
2023-03-30T16:25:41.890Z,14.63
2023-03-30T16:28:16.347Z,13.88
2023-03-30T16:30:46.496Z,18.58
2023-03-30T16:33:13.348Z,20.92
2023-03-30T16:35:40.357Z,19.02
2023-03-30T16:38:07.099Z,15.57
2023-03-30T16:40:37.983Z,21.92
2023-03-30T16:43:06.085Z,14.50
2023-03-30T16:45:33.618Z,13.57
2023-03-30T16:48:00.870Z,19.27
2023-03-30T16:50:40.016Z,17.00
2023-03-30T16:53:08.821Z,15.45
2023-03-30T16:55:36.473Z,14.30
2023-03-30T16:58:04.775Z,18.55
2023-03-30T17:01:04.428Z,15.70
2023-03-30T17:03:31.927Z,12.35
2023-03-30T17:05:59.076Z,18.35
2023-03-30T17:08:29.315Z,11.23
2023-03-30T17:11:02.487Z,13.10
2023-03-30T17:13:29.713Z,12.15
2023-03-30T17:15:59.727Z,11.30
2023-03-30T17:18:33.708Z,12.10
2023-03-30T17:21:01.965Z,13.02
2023-03-30T17:23:34.509Z,16.40
2023-03-30T17:26:02.370Z,16.23
2023-03-30T17:28:32.213Z,11.43
2023-03-30T17:31:01.662Z,11.67
2023-03-30T17:33:29.441Z,17.77
2023-03-30T17:36:03.093Z,15.87
2023-03-30T17:38:30.066Z,13.33
2023-03-30T17:40:56.902Z,14.50
2023-03-30T17:43:23.964Z,14.10
2023-03-30T17:45:51.240Z,11.63
2023-03-30T17:48:20.026Z,14.07
2023-03-30T17:50:49.981Z,18.07
2023-03-30T17:53:20.701Z,10.93
2023-03-30T17:55:49.281Z,12.47
2023-03-30T17:58:25.467Z,14.50
2023-03-30T18:00:53.174Z,13.47
2023-03-30T18:03:25.554Z,16.27
2023-03-30T18:05:53.783Z,12.57
2023-03-30T18:08:23.814Z,25.77
2023-03-30T18:10:56.933Z,16.73
2023-03-30T18:13:25.370Z,15.60
2023-03-30T18:15:54.767Z,13.00
2023-03-30T18:18:25.132Z,18.80
2023-03-30T18:20:54.265Z,16.87
2023-03-30T18:23:21.965Z,18.30
2023-03-30T18:25:49.076Z,23.77
2023-03-30T18:28:18.655Z,16.50
2023-03-30T18:30:46.274Z,19.13
2023-03-30T18:33:16.846Z,19.17
2023-03-30T18:35:46.347Z,19.93
2023-03-30T18:38:15.415Z,18.77
2023-03-30T18:40:45.590Z,14.73
2023-03-30T18:43:13.191Z,15.13
2023-03-30T18:45:42.401Z,16.90
2023-03-30T18:48:12.808Z,14.93
2023-03-30T18:50:42.547Z,15.07
2023-03-30T18:53:11.725Z,13.33
2023-03-30T18:55:41.156Z,16.23
2023-03-30T18:58:18.319Z,21.20
2023-03-30T19:00:45.877Z,22.13
2023-03-30T19:03:14.210Z,22.37
2023-03-30T19:05:42.187Z,21.83
2023-03-30T19:08:14.605Z,15.77
2023-03-30T19:10:43.171Z,13.73
2023-03-30T19:13:13.785Z,14.60
2023-03-30T19:15:40.821Z,16.00
2023-03-30T19:18:08.737Z,18.90
2023-03-30T19:20:41.334Z,14.97
2023-03-30T19:23:11.214Z,17.60
2023-03-30T19:25:38.638Z,27.50
2023-03-30T19:28:06.390Z,20.10
2023-03-30T19:30:38.321Z,20.17
2023-03-30T19:33:08.905Z,27.57
2023-03-30T19:35:36.079Z,19.37
2023-03-30T19:38:03.169Z,20.77
2023-03-30T19:40:30.095Z,21.57
2023-03-30T19:42:56.968Z,20.30
2023-03-30T19:45:24.439Z,23.40
2023-03-30T19:47:52.016Z,22.30
2023-03-30T19:50:20.316Z,23.17
2023-03-30T19:52:50.216Z,20.63
2023-03-30T19:55:19.016Z,22.93
2023-03-30T19:57:46.125Z,21.93
2023-03-30T20:00:15.989Z,21.13
2023-03-30T20:02:46.063Z,23.27
2023-03-30T20:05:13.329Z,23.83
2023-03-30T20:07:40.887Z,21.90
2023-03-30T20:10:09.905Z,23.97
2023-03-30T20:12:37.258Z,18.70
2023-03-30T20:15:06.206Z,25.93
2023-03-30T20:17:34.244Z,27.20
2023-03-30T20:20:07.261Z,24.10
2023-03-30T20:22:39.083Z,21.40
2023-03-30T20:25:07.879Z,19.83
2023-03-30T20:27:35.718Z,21.70
2023-03-30T20:30:04.125Z,19.27
2023-03-30T20:32:31.795Z,18.57
2023-03-30T20:34:58.708Z,18.80
2023-03-30T20:37:25.378Z,18.83
2023-03-30T20:39:52.288Z,19.27
2023-03-30T20:42:26.391Z,18.17
2023-03-30T20:44:53.743Z,16.47
2023-03-30T20:47:23.352Z,17.27
2023-03-30T20:49:50.600Z,16.83
2023-03-30T20:52:17.410Z,17.17
2023-03-30T20:54:44.981Z,14.47
2023-03-30T20:57:12.491Z,15.33
2023-03-30T20:59:39.625Z,19.33
2023-03-30T21:02:07.166Z,13.53
2023-03-30T21:04:34.581Z,15.07
2023-03-30T21:07:01.477Z,17.80
2023-03-30T21:09:28.741Z,11.37
2023-03-30T21:11:55.908Z,17.53
2023-03-30T21:14:24.187Z,12.60
2023-03-30T21:16:51.110Z,15.97
2023-03-30T21:19:18.136Z,13.97
2023-03-30T21:21:44.889Z,12.10
2023-03-30T21:24:12.364Z,19.10
2023-03-30T21:26:39.780Z,11.93
2023-03-30T21:29:06.528Z,17.93
2023-03-30T21:31:33.387Z,15.80
2023-03-30T21:34:00.324Z,14.10
2023-03-30T21:36:27.513Z,16.27
2023-03-30T21:38:57.632Z,15.40
2023-03-30T21:41:26.186Z,17.43
2023-03-30T21:43:53.135Z,13.43
2023-03-30T21:46:22.157Z,11.90
2023-03-30T21:48:53.147Z,16.13
2023-03-30T21:51:27.432Z,18.27
2023-03-30T21:53:55.598Z,20.60
2023-03-30T21:56:24.350Z,14.67
2023-03-30T21:58:51.790Z,16.93
2023-03-30T22:01:20.299Z,19.20
2023-03-30T22:03:47.242Z,16.50
2023-03-30T22:06:16.370Z,24.07
2023-03-30T22:08:47.476Z,12.60
2023-03-30T22:11:16.807Z,18.77
2023-03-30T22:13:45.841Z,19.07
2023-03-30T22:16:19.720Z,20.50
2023-03-30T22:18:47.063Z,15.87
2023-03-30T22:21:24.107Z,15.17
2023-03-30T22:23:52.089Z,18.20
2023-03-30T22:26:18.817Z,16.00
2023-03-30T22:28:45.589Z,17.20
2023-03-30T22:31:14.747Z,12.77
2023-03-30T22:33:41.724Z,20.37
2023-03-30T22:36:26.363Z,13.97
2023-03-30T22:38:53.322Z,16.47
2023-03-30T22:41:23.897Z,16.33
2023-03-30T22:43:53.987Z,23.93
2023-03-30T22:46:21.593Z,16.30
2023-03-30T22:48:52.585Z,20.77
2023-03-30T22:51:26.526Z,21.47
2023-03-30T22:54:00.760Z,18.20
2023-03-30T22:56:29.030Z,10.73
2023-03-30T22:58:56.771Z,14.03
2023-03-30T23:01:23.941Z,19.80
2023-03-30T23:03:53.083Z,19.47
2023-03-30T23:06:20.288Z,20.53
2023-03-30T23:08:48.933Z,19.03
2023-03-30T23:11:16.564Z,18.37
2023-03-30T23:13:43.434Z,14.67
2023-03-30T23:16:10.588Z,16.27
2023-03-30T23:18:37.815Z,16.87
2023-03-30T23:21:07.020Z,18.70
2023-03-30T23:23:38.125Z,15.77
2023-03-30T23:26:08.685Z,23.60
2023-03-30T23:28:39.265Z,11.60
2023-03-30T23:31:13.712Z,12.37
2023-03-30T23:33:42.211Z,14.07
2023-03-30T23:36:13.375Z,17.13
2023-03-30T23:38:40.467Z,15.93
2023-03-30T23:41:07.762Z,11.20
2023-03-30T23:43:34.729Z,14.13
2023-03-30T23:46:01.622Z,15.20
2023-03-30T23:48:29.006Z,17.77
2023-03-30T23:50:56.974Z,18.30
2023-03-30T23:53:25.094Z,20.23
2023-03-30T23:55:52.073Z,14.20
2023-03-30T23:58:19.179Z,14.43
